Mobile, Arizona
Current Conditions -  °F | °C
As of 4:15 PM on Monday 20 Oct 2014 (Local Time) from KCGZ Reporting Station
Clear Clear  
Wind Chill: 86°   Ceiling: Unl
Heat Index: 86°   Visibility: 10mi
Dew Point: 46°   Wind: 0mph
Humidity: 25%   Direction: NA
Pressure: 29.83"   Gusts: NA
Location:  32.9044°N, 112.146°W
Report Text: KCGZ 202315Z AUTO 00000KT 10SM CLR 30/08 A2983 RMK AO1
Loading
Personal Weather Stations






























Interactive Weather Map New forecast layout! Learn more

10-Day Weather Forecast

Advertisements
Track Severe Weather on mobile